CPX784 Details

Departure: Incheon International Airport (RKSI)
Arrival: Tan Son Nhat International Airport (VVTS) at N/A
Route: BOPTA1K BOPTA Z51 BEDES Y711 MUGUS Y742 SALMI Q11 DRAKE Q11 TACLE Q12 KABAM N892 MESOX Q15 CRA W2 PTH BAOMY1F
Notes:


Current Weather Information
RKSI 230730Z 04005KT CAVOK 20/09 Q1018 NOSIG
VVTS 230730Z 16009KT 7000 -SHRA BKN015 FEW017CB 28/26 Q1006 TEMPO TL0755 5000 TSRA RMK CB OVER RWY